createdAt,value
2016-06-22T00:00:59.291Z,43.67
2016-06-22T00:01:59.596Z,43.67
2016-06-22T00:02:59.011Z,43.67
2016-06-22T00:03:59.661Z,43.48
2016-06-22T00:04:59.066Z,43.19
2016-06-22T00:05:59.089Z,43.85
2016-06-22T00:06:59.752Z,43.19
2016-06-22T00:07:59.161Z,43.27
2016-06-22T00:08:59.793Z,43.67
2016-06-22T00:09:59.818Z,43.85
2016-06-22T00:10:59.836Z,43.37
2016-06-22T00:11:59.865Z,43.75
2016-06-22T00:12:59.286Z,43.27
2016-06-22T00:14:00.031Z,43.17
2016-06-22T00:14:59.535Z,42.97
2016-06-22T00:15:59.356Z,43.37
2016-06-22T00:17:00.015Z,43.27
2016-06-22T00:18:00.029Z,43.55
2016-06-22T00:18:59.442Z,43.37
2016-06-22T00:19:59.477Z,43.37
2016-06-22T00:20:59.499Z,43.55
2016-06-22T00:21:59.642Z,43.75
2016-06-22T00:23:00.159Z,43.75
2016-06-22T00:23:59.591Z,43.55
2016-06-22T00:24:59.663Z,43.94
2016-06-22T00:26:00.248Z,43.94
2016-06-22T00:26:59.661Z,44.04
2016-06-22T00:28:00.294Z,43.75
2016-06-22T00:29:00.323Z,43.85
2016-06-22T00:29:59.738Z,43.75
2016-06-22T00:31:00.378Z,44.04
2016-06-22T00:32:00.519Z,44.32
2016-06-22T00:33:00.431Z,43.85
2016-06-22T00:34:00.460Z,44.32
2016-06-22T00:34:59.871Z,44.13
2016-06-22T00:36:00.516Z,44.23
2016-06-22T00:37:00.537Z,44.23
2016-06-22T00:38:00.634Z,44.42
2016-06-22T00:39:00.597Z,44.32
2016-06-22T00:40:00.786Z,44.42
2016-06-22T00:41:00.942Z,44.23
2016-06-22T00:42:00.679Z,44.32
2016-06-22T00:43:00.698Z,44.32
2016-06-22T00:44:00.728Z,44.52
2016-06-22T00:45:00.133Z,44.52
2016-06-22T00:46:00.161Z,44.62
2016-06-22T00:47:00.798Z,44.42
2016-06-22T00:48:00.224Z,44.42
2016-06-22T00:49:00.859Z,44.42
2016-06-22T00:50:00.891Z,44.52
2016-06-22T00:51:00.329Z,44.32
2016-06-22T00:52:00.328Z,44.52
2016-06-22T00:53:00.968Z,44.32
2016-06-22T00:54:00.994Z,44.52
2016-06-22T00:55:01.011Z,44.32
2016-06-22T00:56:01.047Z,44.71
2016-06-22T00:57:00.458Z,44.62
2016-06-22T00:58:01.110Z,44.62
2016-06-22T00:59:01.122Z,44.62
2016-06-22T01:00:01.153Z,44.59
2016-06-22T01:01:01.178Z,44.52
2016-06-22T01:02:00.610Z,44.69
2016-06-22T01:03:00.619Z,44.71
2016-06-22T01:04:01.263Z,44.49
2016-06-22T01:05:01.297Z,44.79
2016-06-22T01:06:01.311Z,44.62
2016-06-22T01:07:01.334Z,44.71
2016-06-22T01:08:01.369Z,44.9
2016-06-22T01:09:00.786Z,44.59
2016-06-22T01:10:01.431Z,44.98
2016-06-22T01:11:00.835Z,44.79
2016-06-22T01:12:00.863Z,44.98
2016-06-22T01:13:01.499Z,44.79
2016-06-22T01:14:01.518Z,45.1
2016-06-22T01:15:01.549Z,44.89
2016-06-22T01:16:00.961Z,44.89
2016-06-22T01:17:01.006Z,44.98
2016-06-22T01:18:01.016Z,45.07
2016-06-22T01:19:01.648Z,44.98
2016-06-22T01:20:01.078Z,45.07
2016-06-22T01:21:01.712Z,45.17
2016-06-22T01:22:01.123Z,44.98
2016-06-22T01:23:01.161Z,45.07
2016-06-22T01:24:01.788Z,45.27
2016-06-22T01:25:01.201Z,45.17
2016-06-22T01:26:01.850Z,45.27
2016-06-22T01:27:01.256Z,45.27
2016-06-22T01:28:01.282Z,45.36
2016-06-22T01:29:01.308Z,45.46
2016-06-22T01:30:01.954Z,45.46
2016-06-22T01:31:01.978Z,45.56
2016-06-22T01:32:01.390Z,45.56
2016-06-22T01:33:02.028Z,45.36
2016-06-22T01:34:01.433Z,45.56
2016-06-22T01:35:01.472Z,45.46
2016-06-22T01:36:01.499Z,45.65
2016-06-22T01:37:02.127Z,45.65
2016-06-22T01:38:01.545Z,45.94
2016-06-22T01:39:02.187Z,46.04
2016-06-22T01:40:01.594Z,45.94
2016-06-22T01:41:01.627Z,46.14
2016-06-22T01:42:02.277Z,46.04
2016-06-22T01:43:02.283Z,46.04
2016-06-22T01:44:02.319Z,46.23
2016-06-22T01:45:02.342Z,46.23
2016-06-22T01:46:02.371Z,46.14
2016-06-22T01:47:01.794Z,46.14
2016-06-22T01:48:02.431Z,46.23
2016-06-22T01:49:01.851Z,46.33
2016-06-22T01:50:01.862Z,46.33
2016-06-22T01:51:01.899Z,46.33
2016-06-22T01:52:02.529Z,46.14
2016-06-22T01:53:01.938Z,46.33
2016-06-22T01:54:02.593Z,46.33
2016-06-22T01:55:01.997Z,46.33
2016-06-22T01:56:02.021Z,46.52
2016-06-22T01:57:02.660Z,46.33
2016-06-22T01:58:02.684Z,46.52
2016-06-22T01:59:02.889Z,46.62
2016-06-22T02:00:02.743Z,46.81
2016-06-22T02:01:02.764Z,46.62
2016-06-22T02:02:02.181Z,46.62
2016-06-22T02:03:02.809Z,46.62
2016-06-22T02:04:02.849Z,46.62
2016-06-22T02:05:02.871Z,46.62
2016-06-22T02:06:02.287Z,46.42
2016-06-22T02:07:03.038Z,46.52
2016-06-22T02:08:02.946Z,47
2016-06-22T02:09:03.070Z,46.42
2016-06-22T02:10:03.071Z,47.1
2016-06-22T02:11:03.114Z,47.39
2016-06-22T02:12:02.462Z,47.08
2016-06-22T02:13:03.075Z,47.1
2016-06-22T02:14:02.505Z,46.91
2016-06-22T02:15:03.137Z,46.91
2016-06-22T02:16:03.155Z,46.69
2016-06-22T02:17:03.181Z,46.88
2016-06-22T02:18:02.604Z,46.91
2016-06-22T02:19:03.233Z,47.1
2016-06-22T02:20:03.261Z,47
2016-06-22T02:21:03.286Z,47
2016-06-22T02:22:03.311Z,47
2016-06-22T02:23:03.345Z,47.1
2016-06-22T02:24:03.368Z,47.1
2016-06-22T02:25:03.385Z,47.08
2016-06-22T02:26:02.817Z,47
2016-06-22T02:27:03.640Z,46.98
2016-06-22T02:28:02.947Z,47.17
2016-06-22T02:29:02.891Z,47.36
2016-06-22T02:30:02.935Z,47.36
2016-06-22T02:31:03.550Z,47.17
2016-06-22T02:32:02.964Z,47.36
2016-06-22T02:33:03.609Z,47.36
2016-06-22T02:34:03.029Z,47.39
2016-06-22T02:35:03.041Z,47.17
2016-06-22T02:36:03.067Z,47.17
2016-06-22T02:37:03.768Z,47.27
2016-06-22T02:38:03.731Z,46.98
2016-06-22T02:39:03.761Z,47.27
2016-06-22T02:40:03.181Z,47.36
2016-06-22T02:41:03.815Z,46.98
2016-06-22T02:42:03.242Z,47.46
2016-06-22T02:43:03.470Z,47.36
2016-06-22T02:44:03.286Z,47.36
2016-06-22T02:45:03.311Z,47.36
2016-06-22T02:46:03.328Z,47.36
2016-06-22T02:47:03.968Z,47.56
2016-06-22T02:48:03.999Z,47.56
2016-06-22T02:49:04.019Z,47.17
2016-06-22T02:50:03.454Z,47.17
2016-06-22T02:51:04.075Z,47.17
2016-06-22T02:52:03.511Z,47.08
2016-06-22T02:53:03.506Z,46.98
2016-06-22T02:54:03.540Z,47.17
2016-06-22T02:55:03.566Z,47.17
2016-06-22T02:56:03.597Z,47.17
2016-06-22T02:57:04.241Z,47.27
2016-06-22T02:58:03.670Z,47.36
2016-06-22T02:59:03.673Z,47.27
2016-06-22T03:00:03.695Z,47.27
2016-06-22T03:01:04.329Z,47.56
2016-06-22T03:02:04.568Z,47.36
2016-06-22T03:03:04.402Z,47.56
2016-06-22T03:04:04.407Z,47.46
2016-06-22T03:05:03.848Z,47.46
2016-06-22T03:06:04.470Z,47.36
2016-06-22T03:07:04.487Z,47.36
2016-06-22T03:08:03.907Z,47.36
2016-06-22T03:09:04.547Z,47.36
2016-06-22T03:10:03.951Z,46.98
2016-06-22T03:11:03.985Z,46.98
2016-06-22T03:12:04.006Z,47.17
2016-06-22T03:13:04.031Z,47.36
2016-06-22T03:14:04.673Z,47.27
2016-06-22T03:15:04.085Z,47.36
2016-06-22T03:16:04.113Z,47.56
2016-06-22T03:17:04.163Z,47.46
2016-06-22T03:18:04.785Z,47.56
2016-06-22T03:19:04.189Z,47.46
2016-06-22T03:20:04.215Z,47.36
2016-06-22T03:21:04.247Z,47.94
2016-06-22T03:22:04.875Z,47.94
2016-06-22T03:23:04.300Z,47.36
2016-06-22T03:24:04.316Z,47.75
2016-06-22T03:25:04.339Z,47.27
2016-06-22T03:26:04.987Z,47.27
2016-06-22T03:27:05.006Z,47.36
2016-06-22T03:28:05.089Z,47.46
2016-06-22T03:29:05.066Z,47.85
2016-06-22T03:30:05.090Z,47.94
2016-06-22T03:31:04.496Z,47.36
2016-06-22T03:32:04.523Z,47.27
2016-06-22T03:33:05.180Z,47.85
2016-06-22T03:34:05.189Z,47.75
2016-06-22T03:35:04.607Z,47.65
2016-06-22T03:36:04.631Z,47.56
2016-06-22T03:37:04.660Z,47.53
2016-06-22T03:38:05.303Z,47.65
2016-06-22T03:39:04.708Z,47.75
2016-06-22T03:40:04.736Z,47.82
2016-06-22T03:41:04.763Z,47.92
2016-06-22T03:42:05.396Z,47.82
2016-06-22T03:43:05.422Z,47.92
2016-06-22T03:44:04.835Z,47.94
2016-06-22T03:45:05.486Z,48.23
2016-06-22T03:46:05.499Z,48.3
2016-06-22T03:47:04.923Z,48.43
2016-06-22T03:48:04.949Z,48.52
2016-06-22T03:49:04.968Z,48.33
2016-06-22T03:50:05.609Z,48.13
2016-06-22T03:51:05.024Z,48.23
2016-06-22T03:52:05.655Z,48.13
2016-06-22T03:53:05.682Z,48.71
2016-06-22T03:54:05.097Z,48.03
2016-06-22T03:55:05.115Z,48.59
2016-06-22T03:56:05.151Z,48.69
2016-06-22T03:57:05.786Z,48.49
2016-06-22T03:58:05.822Z,48.52
2016-06-22T03:59:05.231Z,48.43
2016-06-22T04:00:05.874Z,48.43
2016-06-22T04:01:05.892Z,48.61
2016-06-22T04:02:05.921Z,48.61
2016-06-22T04:03:05.939Z,48.59
2016-06-22T04:04:05.978Z,48.59
2016-06-22T04:05:05.991Z,48.59
2016-06-22T04:06:05.403Z,48.49
2016-06-22T04:07:06.046Z,48.61
2016-06-22T04:08:05.461Z,48.4
2016-06-22T04:09:06.098Z,48.4
2016-06-22T04:10:05.517Z,48.4
2016-06-22T04:11:06.152Z,48.33
2016-06-22T04:12:06.172Z,48.71
2016-06-22T04:13:05.594Z,48.59
2016-06-22T04:14:06.230Z,48.59
2016-06-22T04:15:06.255Z,48.49
2016-06-22T04:16:06.281Z,48.71
2016-06-22T04:17:06.305Z,48.59
2016-06-22T04:18:05.720Z,48.79
2016-06-22T04:19:06.357Z,48.9
2016-06-22T04:20:06.382Z,48.81
2016-06-22T04:21:06.407Z,48.81
2016-06-22T04:22:06.442Z,48.71
2016-06-22T04:23:06.471Z,48.9
2016-06-22T04:24:05.874Z,48.69
2016-06-22T04:25:06.516Z,49.1
2016-06-22T04:26:05.926Z,49.58
2016-06-22T04:27:06.562Z,49
2016-06-22T04:28:05.982Z,49.48
2016-06-22T04:29:06.615Z,49.48
2016-06-22T04:30:06.641Z,49.38
2016-06-22T04:31:06.654Z,49.58
2016-06-22T04:32:06.693Z,49.58
2016-06-22T04:33:06.722Z,49.58
2016-06-22T04:34:06.742Z,49.68
2016-06-22T04:35:06.769Z,49.96
2016-06-22T04:36:06.202Z,49.38
2016-06-22T04:37:06.205Z,49.87
2016-06-22T04:38:06.244Z,49.68
2016-06-22T04:39:06.879Z,49.68
2016-06-22T04:40:06.295Z,49.58
2016-06-22T04:41:06.925Z,49.58
2016-06-22T04:42:06.951Z,50.45
2016-06-22T04:43:06.971Z,50.54
2016-06-22T04:44:07.006Z,50.15
2016-06-22T04:45:06.417Z,50.06
2016-06-22T04:46:07.048Z,49.77
2016-06-22T04:47:06.471Z,49.77
2016-06-22T04:48:06.490Z,49.96
2016-06-22T04:49:07.125Z,50.06
2016-06-22T04:50:07.154Z,49.96
2016-06-22T04:51:07.190Z,49.79
2016-06-22T04:52:06.602Z,50.06
2016-06-22T04:53:07.247Z,49.79
2016-06-22T04:54:06.657Z,50.06
2016-06-22T04:55:06.675Z,49.99
2016-06-22T04:56:06.705Z,49.89
2016-06-22T04:57:06.740Z,49.99
2016-06-22T04:58:06.756Z,49.7
2016-06-22T04:59:06.785Z,49.51
2016-06-22T05:00:06.807Z,49.7
2016-06-22T05:01:06.839Z,49.99
2016-06-22T05:02:07.473Z,49.99
2016-06-22T05:03:06.890Z,50.09
2016-06-22T05:04:07.524Z,49.7
2016-06-22T05:05:07.662Z,49.99
2016-06-22T05:06:07.576Z,50.09
2016-06-22T05:07:06.994Z,49.99
2016-06-22T05:08:07.683Z,49.99
2016-06-22T05:09:07.036Z,49.79
2016-06-22T05:10:07.773Z,49.89
2016-06-22T05:11:07.103Z,49.89
2016-06-22T05:12:07.117Z,50.01
2016-06-22T05:13:07.822Z,50.09
2016-06-22T05:14:07.901Z,50.01
2016-06-22T05:15:07.185Z,49.99
2016-06-22T05:16:07.210Z,49.89
2016-06-22T05:17:07.895Z,49.79
2016-06-22T05:18:07.885Z,49.91
2016-06-22T05:19:07.284Z,49.91
2016-06-22T05:20:07.328Z,49.63
2016-06-22T05:21:07.575Z,49.63
2016-06-22T05:22:07.377Z,49.73
2016-06-22T05:23:07.416Z,49.63
2016-06-22T05:24:07.423Z,50.01
2016-06-22T05:25:08.058Z,49.53
2016-06-22T05:26:07.479Z,49.63
2016-06-22T05:27:08.117Z,49.53
2016-06-22T05:28:08.146Z,49.53
2016-06-22T05:29:08.171Z,49.43
2016-06-22T05:30:08.203Z,50.21
2016-06-22T05:31:08.266Z,49.63
2016-06-22T05:32:08.252Z,50.11
2016-06-22T05:33:07.663Z,49.53
2016-06-22T05:34:08.303Z,49.73
2016-06-22T05:35:08.333Z,49.34
2016-06-22T05:36:08.355Z,49.43
2016-06-22T05:37:07.767Z,49.63
2016-06-22T05:38:08.426Z,49.43
2016-06-22T05:39:07.814Z,49.53
2016-06-22T05:40:08.459Z,49.53
2016-06-22T05:41:07.877Z,49.43
2016-06-22T05:42:08.511Z,49.65
2016-06-22T05:43:07.925Z,49.46
2016-06-22T05:44:07.952Z,49.37
2016-06-22T05:45:08.586Z,49.65
2016-06-22T05:46:08.002Z,49.75
2016-06-22T05:47:08.032Z,49.46
2016-06-22T05:48:08.675Z,49.65
2016-06-22T05:49:08.077Z,49.46
2016-06-22T05:50:08.730Z,49.46
2016-06-22T05:51:08.138Z,49.55
2016-06-22T05:52:08.789Z,49.84
2016-06-22T05:53:08.191Z,49.46
2016-06-22T05:54:08.210Z,49.46
2016-06-22T05:55:08.871Z,49.55
2016-06-22T05:56:08.885Z,49.84
2016-06-22T05:57:08.917Z,49.65
2016-06-22T05:58:08.937Z,49.27
2016-06-22T05:59:08.973Z,49.87
2016-06-22T06:00:08.379Z,49.1
2016-06-22T06:01:08.402Z,49.19
2016-06-22T06:02:09.048Z,48.9
2016-06-22T06:03:09.061Z,48.61
2016-06-22T06:04:09.104Z,48.61
2016-06-22T06:05:09.129Z,48.52
2016-06-22T06:06:09.149Z,48.71
2016-06-22T06:07:08.561Z,48.71
2016-06-22T06:08:09.214Z,48.71
2016-06-22T06:09:08.614Z,48.9
2016-06-22T06:10:09.251Z,48.71
2016-06-22T06:11:08.703Z,48.61
2016-06-22T06:12:08.691Z,48.42
2016-06-22T06:13:08.722Z,48.42
2016-06-22T06:14:09.358Z,48.42
2016-06-22T06:15:08.776Z,48.33
2016-06-22T06:16:08.804Z,48.25
2016-06-22T06:17:09.453Z,48.64
2016-06-22T06:18:08.849Z,48.74
2016-06-22T06:19:09.513Z,48.25
2016-06-22T06:20:09.519Z,48.25
2016-06-22T06:21:09.562Z,48.44
2016-06-22T06:22:09.578Z,48.35
2016-06-22T06:23:08.985Z,48.16
2016-06-22T06:24:09.633Z,47.87
2016-06-22T06:25:09.660Z,47.67
2016-06-22T06:26:09.703Z,47.58
2016-06-22T06:27:09.719Z,47.09
2016-06-22T06:28:09.120Z,47.48
2016-06-22T06:29:09.770Z,47.48
2016-06-22T06:30:09.793Z,47.22
2016-06-22T06:31:09.817Z,47.5
2016-06-22T06:32:09.232Z,47.12
2016-06-22T06:33:09.876Z,47.5
2016-06-22T06:34:09.904Z,47.7
2016-06-22T06:35:09.317Z,47.41
2016-06-22T06:36:09.957Z,47.31
2016-06-22T06:37:09.359Z,47.41
2016-06-22T06:38:09.402Z,47.22
2016-06-22T06:39:10.038Z,47.02
2016-06-22T06:40:09.442Z,46.83
2016-06-22T06:41:10.095Z,47.41
2016-06-22T06:42:09.499Z,47.12
2016-06-22T06:43:09.524Z,47.31
2016-06-22T06:44:10.172Z,47.12
2016-06-22T06:45:09.599Z,47.24
2016-06-22T06:46:10.224Z,46.85
2016-06-22T06:47:09.632Z,47.33
2016-06-22T06:48:09.681Z,46.75
2016-06-22T06:49:09.688Z,46.66
2016-06-22T06:50:09.722Z,46.85
2016-06-22T06:51:09.758Z,46.75
2016-06-22T06:52:09.781Z,46.75
2016-06-22T06:53:09.807Z,46.85
2016-06-22T06:54:10.447Z,46.47
2016-06-22T06:55:10.468Z,46.37
2016-06-22T06:56:10.505Z,46.17
2016-06-22T06:57:10.546Z,46.37
2016-06-22T06:58:10.561Z,46.27
2016-06-22T06:59:10.582Z,46.27
2016-06-22T07:00:10.621Z,46.2
2016-06-22T07:01:10.642Z,46.1
2016-06-22T07:02:10.062Z,46.17
2016-06-22T07:03:10.076Z,45.91
2016-06-22T07:04:10.727Z,45.81
2016-06-22T07:05:10.749Z,45.81
2016-06-22T07:06:10.153Z,45.62
2016-06-22T07:07:10.813Z,45.72
2016-06-22T07:08:10.846Z,45.52
2016-06-22T07:09:10.863Z,45.23
2016-06-22T07:10:10.891Z,45.16
2016-06-22T07:11:10.924Z,45.23
2016-06-22T07:12:10.999Z,45.06
2016-06-22T07:13:10.970Z,45.16
2016-06-22T07:14:10.382Z,44.96
2016-06-22T07:15:10.470Z,44.96
2016-06-22T07:16:11.061Z,44.96
2016-06-22T07:17:11.128Z,44.77
2016-06-22T07:18:10.517Z,44.57
2016-06-22T07:19:11.202Z,44.77
2016-06-22T07:20:10.637Z,44.67
2016-06-22T07:21:11.483Z,44.6
2016-06-22T07:22:11.325Z,44.79
2016-06-22T07:23:11.247Z,44.79
2016-06-22T07:24:10.715Z,44.79
2016-06-22T07:25:11.460Z,44.5
2016-06-22T07:26:10.853Z,44.4
2016-06-22T07:27:11.442Z,44.4
2016-06-22T07:28:11.813Z,44.5
2016-06-22T07:29:10.835Z,44.4
2016-06-22T07:30:11.752Z,44.6
2016-06-22T07:31:11.719Z,44.4
2016-06-22T07:32:11.611Z,44.5
2016-06-22T07:33:10.971Z,44.5
2016-06-22T07:34:11.102Z,44.31
2016-06-22T07:35:11.827Z,44.62
2016-06-22T07:36:11.623Z,44.43
2016-06-22T07:37:12.139Z,44.13
2016-06-22T07:38:11.075Z,44.43
2016-06-22T07:39:12.224Z,44.43
2016-06-22T07:40:12.015Z,43.95
2016-06-22T07:41:12.023Z,44.53
2016-06-22T07:42:11.850Z,44.33
2016-06-22T07:43:11.315Z,43.95
2016-06-22T07:44:11.252Z,44.33
2016-06-22T07:45:11.893Z,44.13
2016-06-22T07:46:11.949Z,43.87
2016-06-22T07:47:11.315Z,44.45
2016-06-22T07:48:11.347Z,44.26
2016-06-22T07:49:12.011Z,44.16
2016-06-22T07:50:12.019Z,43.96
2016-06-22T07:51:11.423Z,43.87
2016-06-22T07:52:12.073Z,44.16
2016-06-22T07:53:11.544Z,44.16
2016-06-22T07:54:12.131Z,43.58
2016-06-22T07:55:12.164Z,43.96
2016-06-22T07:56:12.273Z,44.06
2016-06-22T07:57:12.218Z,44.27
2016-06-22T07:58:12.250Z,44.09
2016-06-22T07:59:12.277Z,43.96
2016-06-22T08:00:11.695Z,43.99
2016-06-22T08:01:12.335Z,43.7
2016-06-22T08:02:11.751Z,43.89
2016-06-22T08:03:12.399Z,43.5
2016-06-22T08:04:12.413Z,43.41
2016-06-22T08:05:11.836Z,43.5
2016-06-22T08:06:12.476Z,43.79
2016-06-22T08:07:11.884Z,43.79
2016-06-22T08:08:11.920Z,43.7
2016-06-22T08:09:11.971Z,44.01
2016-06-22T08:10:12.600Z,44.1
2016-06-22T08:11:12.019Z,43.62
2016-06-22T08:12:12.038Z,43.43
2016-06-22T08:13:12.684Z,43.62
2016-06-22T08:14:12.792Z,43.52
2016-06-22T08:15:12.740Z,43.72
2016-06-22T08:16:12.763Z,43.52
2016-06-22T08:17:12.800Z,43.64
2016-06-22T08:18:12.210Z,43.64
2016-06-22T08:19:12.236Z,43.45
2016-06-22T08:20:12.265Z,43.26
2016-06-22T08:21:12.329Z,43.16
2016-06-22T08:22:12.936Z,43.16
2016-06-22T08:23:12.467Z,43.06
2016-06-22T08:24:13.004Z,43.18
2016-06-22T08:25:13.035Z,42.79
2016-06-22T08:26:12.484Z,42.99
2016-06-22T08:27:12.479Z,42.79
2016-06-22T08:28:13.124Z,42.5
2016-06-22T08:29:13.150Z,42.79
2016-06-22T08:30:13.183Z,42.79
2016-06-22T08:31:12.587Z,42.71
2016-06-22T08:32:13.251Z,42.52
2016-06-22T08:33:12.658Z,42.43
2016-06-22T08:34:13.413Z,42.33
2016-06-22T08:35:13.327Z,42.03
2016-06-22T08:36:13.359Z,41.84
2016-06-22T08:37:13.391Z,41.84
2016-06-22T08:38:12.804Z,41.45
2016-06-22T08:39:13.536Z,41.57
2016-06-22T08:40:13.479Z,41.47
2016-06-22T08:41:13.589Z,41.47
2016-06-22T08:42:13.543Z,41.28
2016-06-22T08:43:12.950Z,41.57
2016-06-22T08:44:12.986Z,41.1
2016-06-22T08:45:13.632Z,40.81
2016-06-22T08:46:13.032Z,40.72
2016-06-22T08:47:13.687Z,40.52
2016-06-22T08:48:13.721Z,40.44
2016-06-22T08:49:13.133Z,40.34
2016-06-22T08:50:13.174Z,40.06
2016-06-22T08:51:13.190Z,40.25
2016-06-22T08:52:13.217Z,40.34
2016-06-22T08:53:13.867Z,39.86
2016-06-22T08:54:14.030Z,39.59
2016-06-22T08:55:13.318Z,39.49
2016-06-22T08:56:13.363Z,39.69
2016-06-22T08:57:13.991Z,39.59
2016-06-22T08:58:14.022Z,39.39
2016-06-22T08:59:13.429Z,39.49
2016-06-22T09:00:14.181Z,39.2
2016-06-22T09:01:13.491Z,39.49
2016-06-22T09:02:14.151Z,39.29
2016-06-22T09:03:14.182Z,39.2
2016-06-22T09:04:14.289Z,39.2
2016-06-22T09:05:13.712Z,39.2
2016-06-22T09:06:14.268Z,39.29
2016-06-22T09:07:14.392Z,39.29
2016-06-22T09:08:13.709Z,39.39
2016-06-22T09:09:13.829Z,39.39
2016-06-22T09:10:14.494Z,39.39
2016-06-22T09:11:13.804Z,39.29
2016-06-22T09:12:14.444Z,39.29
2016-06-22T09:13:13.858Z,39.2
2016-06-22T09:14:14.509Z,39.29
2016-06-22T09:15:14.567Z,39.2
2016-06-22T09:16:14.573Z,39.2
2016-06-22T09:17:13.982Z,39.1
2016-06-22T09:18:14.633Z,39.2
2016-06-22T09:19:14.041Z,39.2
2016-06-22T09:20:14.078Z,39
2016-06-22T09:21:14.740Z,39.1
2016-06-22T09:22:14.901Z,39.1
2016-06-22T09:23:14.157Z,38.91
2016-06-22T09:24:14.195Z,38.91
2016-06-22T09:25:14.939Z,38.91
2016-06-22T09:26:14.952Z,39
2016-06-22T09:27:14.910Z,39
2016-06-22T09:28:14.994Z,39
2016-06-22T09:29:14.436Z,39.1
2016-06-22T09:30:14.380Z,38.13
2016-06-22T09:31:15.526Z,38.42
2016-06-22T09:32:14.531Z,38.81
2016-06-22T09:33:14.486Z,38.81
2016-06-22T09:34:15.130Z,39.1
2016-06-22T09:35:15.436Z,38.73
2016-06-22T09:36:14.562Z,38.81
2016-06-22T09:37:15.301Z,38.62
2016-06-22T09:38:15.256Z,38.71
2016-06-22T09:39:15.287Z,38.93
2016-06-22T09:40:15.314Z,38.83
2016-06-22T09:41:15.351Z,38.83
2016-06-22T09:42:14.750Z,38.73
2016-06-22T09:43:15.401Z,38.64
2016-06-22T09:44:15.448Z,38.64
2016-06-22T09:45:15.555Z,38.05
2016-06-22T09:46:15.503Z,37.95
2016-06-22T09:47:15.542Z,37.56
2016-06-22T09:48:15.650Z,38.24
2016-06-22T09:49:14.982Z,38.15
2016-06-22T09:50:15.628Z,38.05
2016-06-22T09:51:15.657Z,38.05
2016-06-22T09:52:15.689Z,37.85
2016-06-22T09:53:15.739Z,37.85
2016-06-22T09:54:15.750Z,37.87
2016-06-22T09:55:15.164Z,37.58
2016-06-22T09:56:15.818Z,36.98
2016-06-22T09:57:15.231Z,37.48
2016-06-22T09:58:16.060Z,37.19
2016-06-22T09:59:15.294Z,37.29
2016-06-22T10:00:15.949Z,37.1
2016-06-22T10:01:15.968Z,36.9
2016-06-22T10:02:16.005Z,37.1
2016-06-22T10:03:16.036Z,37.1
2016-06-22T10:04:16.067Z,37.1
2016-06-22T10:05:16.191Z,36.82
2016-06-22T10:06:16.182Z,36.92
2016-06-22T10:07:15.542Z,37.02
2016-06-22T10:08:15.582Z,36.82
2016-06-22T10:09:16.227Z,36.82
2016-06-22T10:10:16.269Z,36.53
2016-06-22T10:11:16.281Z,36.53
2016-06-22T10:12:16.334Z,36.92
2016-06-22T10:13:15.734Z,36.84
2016-06-22T10:14:15.806Z,36.55
2016-06-22T10:15:16.445Z,36.25
2016-06-22T10:16:16.451Z,35.86
2016-06-22T10:17:16.483Z,36.16
2016-06-22T10:18:16.515Z,36.16
2016-06-22T10:19:16.637Z,35.96
2016-06-22T10:20:16.011Z,35.78
2016-06-22T10:21:16.003Z,35.78
2016-06-22T10:22:16.643Z,35.59
2016-06-22T10:23:16.679Z,35.3
2016-06-22T10:24:16.701Z,35.78
2016-06-22T10:25:16.115Z,35.69
2016-06-22T10:26:16.763Z,35.69
2016-06-22T10:27:16.183Z,35.69
2016-06-22T10:28:16.838Z,35.78
2016-06-22T10:29:16.242Z,35.39
2016-06-22T10:30:17.563Z,35.22
2016-06-22T10:31:16.935Z,35.41
2016-06-22T10:32:17.197Z,34.44
2016-06-22T10:33:16.459Z,34.73
2016-06-22T10:34:16.406Z,34.83
2016-06-22T10:35:16.438Z,35.12
2016-06-22T10:36:16.533Z,34.83
2016-06-22T10:37:17.128Z,34.05
2016-06-22T10:38:16.559Z,34.34
2016-06-22T10:39:17.180Z,34.44
2016-06-22T10:40:17.231Z,34.53
2016-06-22T10:41:16.726Z,34.14
2016-06-22T10:42:16.759Z,34.36
2016-06-22T10:44:16.779Z,34.16
2016-06-22T10:45:16.776Z,34.26
2016-06-22T10:46:16.795Z,34.26
2016-06-22T10:47:17.451Z,33.97
2016-06-22T10:48:17.533Z,34.36
2016-06-22T10:49:17.533Z,34.36
2016-06-22T10:50:16.931Z,33.97
2016-06-22T10:51:16.956Z,33.77
2016-06-22T10:52:16.999Z,33.67
2016-06-22T10:53:17.026Z,33.48
2016-06-22T10:54:17.063Z,33.38
2016-06-22T10:55:17.709Z,33.5
2016-06-22T10:56:17.762Z,33.79
2016-06-22T10:57:17.165Z,33.5
2016-06-22T10:58:17.195Z,33.5
2016-06-22T10:59:17.223Z,33.5
2016-06-22T11:00:17.881Z,33.4
2016-06-22T11:01:17.296Z,33.3
2016-06-22T11:02:18.044Z,33.3
2016-06-22T11:03:17.446Z,33.3
2016-06-22T11:04:18.011Z,32.71
2016-06-22T11:05:17.427Z,32.71
2016-06-22T11:06:18.074Z,32.71
2016-06-22T11:07:17.489Z,33.01
2016-06-22T11:08:17.607Z,33.2
2016-06-22T11:09:17.558Z,32.91
2016-06-22T11:10:18.263Z,32.91
2016-06-22T11:11:18.243Z,32.63
2016-06-22T11:12:18.274Z,32.62
2016-06-22T11:13:17.708Z,32.82
2016-06-22T11:14:17.714Z,33.02
2016-06-22T11:15:18.436Z,32.92
2016-06-22T11:16:18.450Z,32.73
2016-06-22T11:17:17.825Z,33.12
2016-06-22T11:18:17.855Z,33.02
2016-06-22T11:19:17.897Z,32.92
2016-06-22T11:20:18.539Z,33.02
2016-06-22T11:21:18.572Z,32.73
2016-06-22T11:22:18.615Z,32.53
2016-06-22T11:23:18.728Z,32.34
2016-06-22T11:24:18.676Z,32.53
2016-06-22T11:25:18.093Z,32.43
2016-06-22T11:26:18.780Z,32.43
2016-06-22T11:27:18.777Z,32.43
2016-06-22T11:28:18.188Z,32.65
2016-06-22T11:29:18.842Z,32.35
2016-06-22T11:30:18.886Z,32.06
2016-06-22T11:31:18.913Z,32.06
2016-06-22T11:32:18.939Z,32.26
2016-06-22T11:33:18.976Z,32.26
2016-06-22T11:34:19.005Z,32.16
2016-06-22T11:35:19.037Z,32.06
2016-06-22T11:36:18.453Z,32.16
2016-06-22T11:37:19.113Z,32.45
2016-06-22T11:38:19.140Z,32.45
2016-06-22T11:39:18.550Z,32.35
2016-06-22T11:40:19.283Z,32.46
2016-06-22T11:41:19.293Z,32.37
2016-06-22T11:42:19.616Z,32.27
2016-06-22T11:43:19.304Z,31.49
2016-06-22T11:44:18.735Z,31.8
2016-06-22T11:45:19.429Z,31.88
2016-06-22T11:46:19.475Z,31.78
2016-06-22T11:47:18.827Z,31.6
2016-06-22T11:48:19.478Z,31.7
2016-06-22T11:49:18.897Z,31.41
2016-06-22T11:50:18.935Z,31.51
2016-06-22T11:51:18.958Z,31.6
2016-06-22T11:52:19.613Z,31.11
2016-06-22T11:53:19.037Z,30.82
2016-06-22T11:54:19.078Z,31.31
2016-06-22T11:55:19.729Z,30.82
2016-06-22T11:56:19.746Z,31.11
2016-06-22T11:57:19.170Z,31.42
2016-06-22T11:58:19.836Z,31.32
2016-06-22T11:59:19.858Z,31.32
2016-06-22T12:00:19.274Z,31.14
2016-06-22T12:01:19.928Z,30.94
2016-06-22T12:02:19.951Z,30.55
2016-06-22T12:03:20.140Z,30.67
2016-06-22T12:04:20.147Z,30.47
2016-06-22T12:05:20.059Z,30.27
2016-06-22T12:06:19.483Z,30.08
2016-06-22T12:07:20.132Z,30.1
2016-06-22T12:08:20.159Z,30
2016-06-22T12:09:20.212Z,29.72
2016-06-22T12:10:19.620Z,29.43
2016-06-22T12:11:20.267Z,29.52
2016-06-22T12:12:20.302Z,29.34
2016-06-22T12:13:20.332Z,28.95
2016-06-22T12:15:20.393Z,28.86
2016-06-22T12:16:20.462Z,28.97
2016-06-22T12:17:19.861Z,28.29
2016-06-22T12:18:19.892Z,27.89
2016-06-22T12:19:20.548Z,28.11
2016-06-22T12:20:19.960Z,27.91
2016-06-22T12:21:20.615Z,27.72
2016-06-22T12:22:20.649Z,27.92
2016-06-22T12:23:20.694Z,27.53
2016-06-22T12:24:20.723Z,27.62
2016-06-22T12:25:20.147Z,27.72
2016-06-22T12:26:20.799Z,27.62
2016-06-22T12:27:20.242Z,27.43
2016-06-22T12:28:20.240Z,27.53
2016-06-22T12:29:20.350Z,27.23
2016-06-22T12:30:20.335Z,27.53
2016-06-22T12:31:20.410Z,27.33
2016-06-22T12:32:21.006Z,27.04
2016-06-22T12:33:21.033Z,27.23
2016-06-22T12:34:21.079Z,27.53
2016-06-22T12:35:21.123Z,27.33
2016-06-22T12:36:20.528Z,27.53
2016-06-22T12:37:21.185Z,27.43
2016-06-22T12:38:21.221Z,26.85
2016-06-22T12:39:20.625Z,27.44
2016-06-22T12:40:20.670Z,27.44
2016-06-22T12:41:21.315Z,27.05
2016-06-22T12:42:21.356Z,27.36
2016-06-22T12:43:20.770Z,26.87
2016-06-22T12:44:21.472Z,26.57
2016-06-22T12:45:20.838Z,26.67
2016-06-22T12:46:21.506Z,26.29
2016-06-22T12:47:21.538Z,26.19
2016-06-22T12:48:21.571Z,26.09
2016-06-22T12:49:20.986Z,25.71
2016-06-22T12:50:21.647Z,25.61
2016-06-22T12:51:21.674Z,25.52
2016-06-22T12:52:21.106Z,25.23
2016-06-22T12:53:21.138Z,24.64
2016-06-22T12:54:21.166Z,24.64
2016-06-22T12:55:21.835Z,24.55
2016-06-22T12:56:21.863Z,24.35
2016-06-22T12:57:21.903Z,24.55
2016-06-22T12:58:21.316Z,24.45
2016-06-22T12:59:21.374Z,24.17